createdAt,value
2023-04-07T00:00:31.328Z,5.43
2023-04-07T00:02:59.661Z,5.57
2023-04-07T00:05:27.547Z,5.47
2023-04-07T00:07:56.802Z,6.38
2023-04-07T00:10:25.399Z,5.63
2023-04-07T00:12:53.250Z,4.97
2023-04-07T00:15:21.068Z,5.82
2023-04-07T00:17:50.505Z,5.80
2023-04-07T00:20:18.472Z,5.97
2023-04-07T00:22:46.302Z,5.40
2023-04-07T00:25:14.089Z,5.13
2023-04-07T00:27:41.834Z,6.05
2023-04-07T00:30:10.150Z,4.60
2023-04-07T00:32:37.906Z,5.57
2023-04-07T00:35:07.914Z,5.72
2023-04-07T00:37:35.673Z,5.70
2023-04-07T00:40:04.183Z,4.53
2023-04-07T00:42:31.948Z,4.47
2023-04-07T00:44:59.664Z,4.85
2023-04-07T00:47:27.641Z,3.97
2023-04-07T00:49:55.368Z,4.30
2023-04-07T00:52:30.028Z,4.90
2023-04-07T00:54:57.775Z,3.75
2023-04-07T00:57:25.516Z,4.35
2023-04-07T00:59:54.418Z,4.00
2023-04-07T01:02:28.334Z,3.85
2023-04-07T01:05:05.581Z,3.75
2023-04-07T01:07:41.227Z,3.85
2023-04-07T01:10:13.445Z,4.13
2023-04-07T01:12:48.767Z,4.13
2023-04-07T01:15:19.752Z,4.15
2023-04-07T01:17:51.718Z,4.10
2023-04-07T01:20:22.671Z,3.78
2023-04-07T01:22:55.896Z,3.75
2023-04-07T01:25:33.919Z,3.13
2023-04-07T01:28:32.664Z,3.92
2023-04-07T01:31:04.720Z,3.15
2023-04-07T01:33:36.657Z,3.97
2023-04-07T01:36:07.706Z,3.47
2023-04-07T01:38:36.762Z,3.55
2023-04-07T01:41:05.573Z,3.38
2023-04-07T01:43:33.921Z,3.70
2023-04-07T01:46:04.930Z,3.85
2023-04-07T01:48:33.444Z,3.45
2023-04-07T01:51:02.003Z,5.07
2023-04-07T01:53:30.997Z,2.97
2023-04-07T01:55:58.735Z,3.03
2023-04-07T01:58:27.214Z,2.95
2023-04-07T02:00:55.031Z,3.00
2023-04-07T02:03:29.097Z,3.50
2023-04-07T02:06:01.279Z,3.70
2023-04-07T02:08:32.351Z,3.03
2023-04-07T02:11:03.743Z,4.10
2023-04-07T02:13:32.104Z,4.05
2023-04-07T02:16:01.596Z,4.28
2023-04-07T02:18:32.887Z,3.83
2023-04-07T02:21:02.363Z,5.03
2023-04-07T02:23:30.352Z,4.50
2023-04-07T02:25:58.982Z,5.15
2023-04-07T02:28:26.772Z,5.32
2023-04-07T02:30:54.497Z,4.57
2023-04-07T02:33:22.251Z,4.35
2023-04-07T02:35:51.503Z,5.10
2023-04-07T02:38:19.275Z,5.78
2023-04-07T02:40:46.988Z,4.75
2023-04-07T02:43:15.554Z,5.18
2023-04-07T02:45:43.267Z,4.28
2023-04-07T02:48:11.088Z,4.72
2023-04-07T02:50:38.874Z,5.22
2023-04-07T02:53:07.967Z,4.63
2023-04-07T02:55:35.674Z,4.80
2023-04-07T02:58:03.388Z,6.00
2023-04-07T03:00:31.255Z,5.18
2023-04-07T03:02:59.000Z,5.30
2023-04-07T03:05:27.170Z,5.50
2023-04-07T03:07:54.911Z,4.82
2023-04-07T03:10:24.054Z,5.07
2023-04-07T03:12:51.805Z,4.82
2023-04-07T03:15:19.518Z,4.60
2023-04-07T03:17:47.278Z,4.90
2023-04-07T03:20:15.074Z,6.85
2023-04-07T03:22:42.879Z,4.78
2023-04-07T03:25:11.315Z,8.70
2023-04-07T03:27:40.679Z,7.97
2023-04-07T03:30:10.468Z,6.50
2023-04-07T03:32:38.208Z,6.55
2023-04-07T03:35:06.500Z,6.60
2023-04-07T03:37:34.265Z,5.53
2023-04-07T03:40:02.032Z,5.57
2023-04-07T03:42:29.789Z,6.85
2023-04-07T03:44:58.866Z,5.50
2023-04-07T03:47:26.707Z,5.45
2023-04-07T03:49:54.478Z,5.75
2023-04-07T03:52:22.198Z,6.53
2023-04-07T03:54:49.928Z,6.45
2023-04-07T03:57:17.759Z,5.22
2023-04-07T03:59:47.000Z,5.65
2023-04-07T04:02:16.444Z,5.55
2023-04-07T04:04:44.359Z,5.13
2023-04-07T04:07:12.090Z,5.10
2023-04-07T04:09:39.993Z,5.53
2023-04-07T04:12:08.154Z,5.00
2023-04-07T04:14:36.069Z,5.20
2023-04-07T04:17:05.526Z,5.00
2023-04-07T04:19:35.162Z,5.82
2023-04-07T04:22:02.931Z,5.18
2023-04-07T04:24:30.643Z,6.30
2023-04-07T04:26:58.350Z,6.90
2023-04-07T04:29:26.056Z,5.55
2023-04-07T04:31:53.852Z,6.40
2023-04-07T04:34:21.886Z,5.68
2023-04-07T04:36:51.014Z,5.72
2023-04-07T04:39:18.851Z,5.88
2023-04-07T04:41:46.581Z,7.15
2023-04-07T04:44:14.355Z,6.32
2023-04-07T04:46:42.191Z,5.90
2023-04-07T04:49:10.003Z,5.32
2023-04-07T04:51:37.772Z,5.60
2023-04-07T04:54:07.332Z,6.68
2023-04-07T04:56:35.277Z,4.80
2023-04-07T04:59:03.982Z,4.30
2023-04-07T05:01:33.495Z,4.40
2023-04-07T05:04:01.786Z,4.22
2023-04-07T05:06:29.596Z,3.83
2023-04-07T05:08:57.358Z,4.22
2023-04-07T05:11:26.664Z,3.58
2023-04-07T05:13:54.571Z,4.35
2023-04-07T05:16:22.725Z,3.40
2023-04-07T05:18:50.595Z,3.13
2023-04-07T05:21:20.201Z,3.38
2023-04-07T05:23:47.975Z,3.22
2023-04-07T05:26:15.771Z,3.42
2023-04-07T05:28:44.945Z,3.58
2023-04-07T05:31:12.715Z,3.60
2023-04-07T05:33:40.540Z,3.50
2023-04-07T05:36:08.895Z,3.55
2023-04-07T05:38:36.693Z,3.60
2023-04-07T05:41:04.468Z,5.80
2023-04-07T05:43:32.275Z,3.45
2023-04-07T05:46:01.477Z,4.30
2023-04-07T05:48:29.669Z,4.18
2023-04-07T05:50:57.506Z,5.55
2023-04-07T05:53:25.455Z,3.90
2023-04-07T05:55:53.259Z,3.45
2023-04-07T05:58:21.094Z,4.47
2023-04-07T06:00:48.864Z,4.22
2023-04-07T06:03:18.411Z,3.67
2023-04-07T06:05:47.238Z,3.17
2023-04-07T06:08:15.135Z,3.53
2023-04-07T06:10:44.230Z,5.13
2023-04-07T06:13:12.002Z,3.15
2023-04-07T06:15:39.734Z,3.13
2023-04-07T06:18:07.634Z,3.50
2023-04-07T06:20:36.825Z,3.20
2023-04-07T06:23:04.594Z,2.85
2023-04-07T06:25:32.348Z,3.20
2023-04-07T06:28:00.171Z,3.05
2023-04-07T06:30:28.010Z,3.42
2023-04-07T06:32:55.914Z,3.47
2023-04-07T06:35:26.699Z,3.42
2023-04-07T06:37:55.832Z,2.50
2023-04-07T06:40:23.646Z,2.58
2023-04-07T06:42:51.707Z,2.72
2023-04-07T06:45:19.472Z,1.85
2023-04-07T06:47:47.286Z,2.30
2023-04-07T06:50:15.050Z,2.42
2023-04-07T06:52:43.189Z,2.50
2023-04-07T06:55:12.531Z,3.55
2023-04-07T06:57:40.295Z,2.42
2023-04-07T07:00:09.324Z,2.65
2023-04-07T07:02:37.222Z,2.20
2023-04-07T07:05:05.822Z,6.88
2023-04-07T07:07:33.568Z,3.05
2023-04-07T07:10:01.379Z,3.42
2023-04-07T07:12:30.534Z,2.30
2023-04-07T07:14:58.318Z,4.03
2023-04-07T07:17:26.090Z,2.00
2023-04-07T07:19:53.881Z,1.95
2023-04-07T07:22:21.691Z,3.55
2023-04-07T07:24:49.447Z,2.40
2023-04-07T07:27:17.210Z,2.45
2023-04-07T07:29:46.333Z,2.10
2023-04-07T07:32:14.085Z,3.45
2023-04-07T07:34:41.951Z,3.83
2023-04-07T07:37:09.725Z,2.72
2023-04-07T07:39:37.521Z,2.50
2023-04-07T07:42:05.269Z,1.90
2023-04-07T07:44:32.992Z,2.25
2023-04-07T07:47:02.359Z,1.65
2023-04-07T07:49:30.260Z,1.63
2023-04-07T07:51:59.678Z,2.30
2023-04-07T07:54:27.582Z,1.67
2023-04-07T07:56:55.313Z,1.90
2023-04-07T07:59:23.154Z,2.35
2023-04-07T08:01:51.071Z,4.75
2023-04-07T08:04:20.882Z,2.28
2023-04-07T08:06:48.722Z,2.00
2023-04-07T08:09:16.506Z,2.15
2023-04-07T08:11:44.413Z,2.10
2023-04-07T08:14:12.276Z,1.95
2023-04-07T08:16:40.115Z,1.85
2023-04-07T08:19:07.959Z,2.40
2023-04-07T08:21:37.517Z,2.03
2023-04-07T08:24:05.642Z,3.25
2023-04-07T08:26:33.882Z,3.45
2023-04-07T08:29:01.619Z,3.20
2023-04-07T08:31:29.608Z,2.75
2023-04-07T08:33:59.037Z,2.25
2023-04-07T08:36:28.024Z,2.60
2023-04-07T08:38:58.632Z,2.40
2023-04-07T08:41:34.572Z,1.98
2023-04-07T08:44:02.871Z,2.92
2023-04-07T08:46:31.723Z,2.10
2023-04-07T08:49:00.300Z,2.70
2023-04-07T08:51:30.079Z,2.75
2023-04-07T08:54:07.371Z,1.95
2023-04-07T08:56:35.526Z,2.17
2023-04-07T08:59:03.676Z,2.67
2023-04-07T09:01:32.237Z,2.03
2023-04-07T09:04:01.035Z,3.05
2023-04-07T09:06:29.002Z,2.10
2023-04-07T09:08:56.765Z,2.17
2023-04-07T09:11:27.294Z,1.92
2023-04-07T09:13:56.080Z,2.00
2023-04-07T09:16:24.923Z,2.72
2023-04-07T09:18:54.090Z,2.10
2023-04-07T09:21:21.876Z,1.92
2023-04-07T09:23:49.916Z,2.20
2023-04-07T09:26:24.458Z,1.73
2023-04-07T09:28:55.778Z,2.00
2023-04-07T09:31:26.313Z,2.28
2023-04-07T09:33:54.451Z,2.17
2023-04-07T09:36:22.227Z,2.45
2023-04-07T09:38:50.017Z,3.10
2023-04-07T09:41:18.319Z,1.83
2023-04-07T09:43:48.386Z,2.17
2023-04-07T09:46:19.049Z,2.47
2023-04-07T09:48:48.581Z,2.45
2023-04-07T09:51:18.406Z,2.22
2023-04-07T09:53:48.728Z,2.53
2023-04-07T09:56:18.012Z,2.97
2023-04-07T09:58:47.910Z,2.47
2023-04-07T10:01:18.152Z,2.60
2023-04-07T10:03:48.129Z,2.50
2023-04-07T10:06:16.955Z,2.65
2023-04-07T10:08:45.126Z,2.08
2023-04-07T10:11:12.840Z,4.20
2023-04-07T10:13:41.461Z,2.47
2023-04-07T10:16:09.727Z,2.15
2023-04-07T10:18:40.935Z,2.72
2023-04-07T10:21:10.724Z,2.35
2023-04-07T10:23:50.323Z,2.20
2023-04-07T10:26:20.896Z,2.53
2023-04-07T10:28:54.767Z,2.40
2023-04-07T10:33:56.404Z,3.70
2023-04-07T10:36:24.373Z,2.63
2023-04-07T10:39:24.128Z,2.60
2023-04-07T10:41:53.255Z,2.78
2023-04-07T10:44:46.682Z,2.15
2023-04-07T10:47:14.640Z,2.42
2023-04-07T10:50:16.723Z,2.55
2023-04-07T10:52:44.670Z,3.42
2023-04-07T10:55:32.774Z,3.45
2023-04-07T10:58:23.141Z,3.10
2023-04-07T11:01:20.735Z,2.45
2023-04-07T11:04:01.558Z,2.50
2023-04-07T11:06:31.489Z,2.40
2023-04-07T11:08:59.262Z,2.83
2023-04-07T11:11:39.477Z,2.13
2023-04-07T11:14:07.844Z,2.85
2023-04-07T11:16:43.346Z,2.63
2023-04-07T11:19:11.364Z,4.63
2023-04-07T11:21:40.689Z,3.42
2023-04-07T11:24:08.465Z,4.63
2023-04-07T11:26:40.766Z,4.20
2023-04-07T11:29:09.083Z,2.90
2023-04-07T11:31:37.970Z,3.85
2023-04-07T11:34:06.779Z,3.33
2023-04-07T11:36:39.083Z,4.43
2023-04-07T11:39:19.915Z,5.43
2023-04-07T11:41:49.077Z,2.72
2023-04-07T11:44:16.845Z,4.28
2023-04-07T11:46:54.665Z,3.05
2023-04-07T11:49:23.615Z,2.72
2023-04-07T11:51:59.281Z,3.50
2023-04-07T11:54:28.439Z,3.42
2023-04-07T11:56:56.254Z,2.80
2023-04-07T11:59:25.369Z,3.10
2023-04-07T12:01:56.990Z,3.72
2023-04-07T12:04:25.657Z,2.75
2023-04-07T12:06:53.599Z,3.58
2023-04-07T12:09:36.185Z,2.65
2023-04-07T12:12:05.735Z,3.85
2023-04-07T12:14:33.921Z,2.90
2023-04-07T12:17:03.661Z,3.30
2023-04-07T12:19:34.871Z,2.63
2023-04-07T12:22:02.650Z,3.42
2023-04-07T12:24:32.287Z,2.78
2023-04-07T12:27:02.455Z,3.15
2023-04-07T12:29:30.290Z,3.60
2023-04-07T12:31:58.582Z,4.07
2023-04-07T12:34:27.183Z,5.68
2023-04-07T12:36:55.061Z,4.10
2023-04-07T12:39:23.024Z,5.50
2023-04-07T12:41:53.170Z,3.45
2023-04-07T12:44:22.420Z,5.00
2023-04-07T12:46:50.197Z,3.25
2023-04-07T12:49:17.983Z,3.00
2023-04-07T12:51:46.028Z,4.43
2023-04-07T12:54:13.761Z,3.42
2023-04-07T12:56:42.254Z,3.38
2023-04-07T12:59:10.001Z,2.92
2023-04-07T13:01:39.545Z,2.97
2023-04-07T13:04:07.761Z,5.45
2023-04-07T13:06:35.698Z,2.75
2023-04-07T13:09:03.759Z,2.58
2023-04-07T13:11:31.504Z,2.92
2023-04-07T13:14:01.112Z,2.70
2023-04-07T13:16:29.504Z,2.83
2023-04-07T13:18:58.678Z,2.42
2023-04-07T13:21:45.417Z,3.22
2023-04-07T13:24:15.044Z,2.50
2023-04-07T13:26:42.865Z,2.35
2023-04-07T13:29:10.669Z,2.67
2023-04-07T13:31:38.432Z,2.40
2023-04-07T13:34:07.695Z,2.85
2023-04-07T13:36:35.446Z,3.03
2023-04-07T13:39:03.389Z,3.35
2023-04-07T13:41:31.751Z,2.33
2023-04-07T13:43:59.550Z,2.72
2023-04-07T13:46:29.160Z,3.65
2023-04-07T13:48:57.309Z,3.60
2023-04-07T13:51:27.505Z,3.20
2023-04-07T13:53:55.251Z,2.55
2023-04-07T13:56:23.805Z,2.88
2023-04-07T13:58:51.810Z,3.05
2023-04-07T14:01:19.648Z,2.72
2023-04-07T14:03:47.876Z,3.08
2023-04-07T14:06:16.270Z,4.15
2023-04-07T14:08:45.374Z,4.70
2023-04-07T14:11:13.072Z,3.80
2023-04-07T14:13:40.815Z,3.33
2023-04-07T14:16:09.360Z,3.80
2023-04-07T14:18:37.213Z,3.75
2023-04-07T14:21:05.270Z,3.03
2023-04-07T14:23:37.166Z,4.18
2023-04-07T14:26:10.438Z,2.97
2023-04-07T14:28:38.252Z,2.90
2023-04-07T14:31:06.225Z,4.10
2023-04-07T14:33:34.073Z,3.45
2023-04-07T14:36:02.007Z,3.30
2023-04-07T14:38:29.789Z,3.92
2023-04-07T14:41:09.510Z,4.15
2023-04-07T14:43:39.762Z,2.67
2023-04-07T14:46:08.701Z,3.20
2023-04-07T14:48:36.645Z,3.10
2023-04-07T14:51:09.830Z,3.78
2023-04-07T14:53:37.855Z,3.38
2023-04-07T14:56:05.912Z,4.65
2023-04-07T14:58:33.779Z,4.10
2023-04-07T15:01:05.629Z,3.40
2023-04-07T15:03:34.826Z,3.80
2023-04-07T15:06:02.856Z,4.32
2023-04-07T15:08:30.659Z,3.50
2023-04-07T15:10:58.841Z,4.32
2023-04-07T15:13:26.543Z,3.13
2023-04-07T15:15:54.311Z,3.40
2023-04-07T15:18:23.518Z,3.63
2023-04-07T15:20:51.379Z,3.53
2023-04-07T15:23:19.127Z,3.30
2023-04-07T15:25:50.098Z,3.20
2023-04-07T15:28:17.827Z,3.42
2023-04-07T15:30:47.339Z,4.28
2023-04-07T15:33:15.705Z,4.25
2023-04-07T15:35:45.575Z,5.72
2023-04-07T15:38:13.424Z,3.35
2023-04-07T15:40:42.648Z,4.07
2023-04-07T15:43:11.519Z,3.80
2023-04-07T15:45:43.434Z,3.53
2023-04-07T15:48:11.830Z,5.10
2023-04-07T15:50:39.736Z,3.40
2023-04-07T15:53:08.960Z,3.05
2023-04-07T15:55:37.589Z,4.18
2023-04-07T15:58:05.631Z,3.28
2023-04-07T16:00:35.655Z,3.92
2023-04-07T16:03:04.026Z,4.25
2023-04-07T16:05:32.336Z,4.07
2023-04-07T16:08:00.196Z,4.18
2023-04-07T16:10:29.277Z,3.60
2023-04-07T16:12:57.098Z,3.85
2023-04-07T16:15:36.846Z,4.72
2023-04-07T16:18:08.386Z,3.47
2023-04-07T16:20:36.191Z,3.42
2023-04-07T16:23:04.047Z,3.88
2023-04-07T16:25:33.307Z,7.43
2023-04-07T16:28:01.081Z,5.85
2023-04-07T16:30:28.835Z,3.90
2023-04-07T16:32:56.625Z,3.67
2023-04-07T16:35:24.391Z,4.53
2023-04-07T16:37:54.720Z,4.18
2023-04-07T16:40:22.540Z,6.57
2023-04-07T16:42:51.660Z,4.05
2023-04-07T16:45:19.507Z,8.68
2023-04-07T16:47:47.275Z,9.48
2023-04-07T16:50:15.211Z,10.45
2023-04-07T16:52:42.965Z,8.07
2023-04-07T16:55:10.892Z,5.88
2023-04-07T16:57:38.624Z,6.10
2023-04-07T17:00:10.874Z,6.13
2023-04-07T17:02:38.920Z,7.18
2023-04-07T17:05:07.878Z,4.80
2023-04-07T17:07:35.688Z,5.20
2023-04-07T17:10:03.911Z,4.63
2023-04-07T17:12:31.756Z,3.97
2023-04-07T17:14:59.500Z,4.60
2023-04-07T17:17:28.695Z,4.35
2023-04-07T17:19:57.636Z,4.45
2023-04-07T17:22:25.390Z,5.13
2023-04-07T17:24:53.186Z,4.25
2023-04-07T17:27:20.937Z,5.15
2023-04-07T17:29:48.682Z,4.72
2023-04-07T17:32:16.406Z,4.68
2023-04-07T17:34:45.530Z,4.93
2023-04-07T17:37:13.270Z,4.60
2023-04-07T17:39:41.023Z,6.32
2023-04-07T17:42:10.878Z,5.25
2023-04-07T17:44:38.617Z,5.85
2023-04-07T17:47:07.780Z,5.55
2023-04-07T17:49:35.560Z,12.48
2023-04-07T17:52:04.668Z,8.57
2023-04-07T17:54:32.451Z,4.93
2023-04-07T17:57:01.019Z,5.20
2023-04-07T17:59:28.823Z,4.60
2023-04-07T18:01:56.928Z,4.75
2023-04-07T18:04:26.252Z,5.10
2023-04-07T18:06:54.654Z,4.55
2023-04-07T18:09:23.791Z,5.05
2023-04-07T18:11:51.576Z,5.70
2023-04-07T18:14:19.335Z,5.20
2023-04-07T18:16:47.073Z,5.18
2023-04-07T18:19:14.874Z,7.03
2023-04-07T18:21:42.727Z,7.70
2023-04-07T18:24:10.477Z,10.77
2023-04-07T18:26:39.634Z,8.25
2023-04-07T18:29:10.039Z,9.77
2023-04-07T18:31:38.187Z,9.40
2023-04-07T18:34:06.102Z,8.20
2023-04-07T18:40:14.628Z,5.72
2023-04-07T18:42:43.738Z,6.53
2023-04-07T18:45:11.895Z,6.35
2023-04-07T18:47:39.682Z,6.30
2023-04-07T18:50:08.578Z,6.30
2023-04-07T18:52:36.401Z,6.45
2023-04-07T18:55:04.427Z,8.00
2023-04-07T18:57:32.267Z,6.65
2023-04-07T19:00:01.434Z,6.00
2023-04-07T19:02:29.271Z,6.43
2023-04-07T19:04:57.121Z,5.82
2023-04-07T19:07:24.974Z,8.27
2023-04-07T19:09:53.833Z,6.53
2023-04-07T19:12:22.283Z,6.60
2023-04-07T19:14:50.047Z,5.40
2023-04-07T19:17:19.211Z,5.82
2023-04-07T19:19:47.074Z,6.38
2023-04-07T19:22:14.771Z,6.68
2023-04-07T19:24:42.573Z,6.32
2023-04-07T19:27:12.087Z,7.05
2023-04-07T19:29:39.784Z,5.38
2023-04-07T19:32:07.763Z,6.60
2023-04-07T19:34:36.965Z,6.00
2023-04-07T19:37:04.756Z,7.47
2023-04-07T19:39:32.530Z,5.32
2023-04-07T19:42:01.063Z,7.75
2023-04-07T19:44:28.854Z,7.22
2023-04-07T19:46:56.603Z,6.53
2023-04-07T19:49:24.415Z,6.70
2023-04-07T19:51:54.490Z,6.30
2023-04-07T19:54:22.898Z,8.15
2023-04-07T19:56:50.618Z,8.88
2023-04-07T19:59:18.391Z,12.85
2023-04-07T20:01:46.382Z,10.80
2023-04-07T20:04:14.216Z,10.15
2023-04-07T20:06:42.012Z,10.77
2023-04-07T20:09:11.418Z,9.20
2023-04-07T20:11:39.240Z,9.52
2023-04-07T20:14:07.014Z,9.93
2023-04-07T20:16:34.898Z,11.77
2023-04-07T20:19:04.108Z,8.90
2023-04-07T20:21:33.379Z,7.55
2023-04-07T20:24:01.356Z,7.53
2023-04-07T20:26:30.637Z,7.70
2023-04-07T20:28:58.422Z,8.63
2023-04-07T20:31:26.257Z,7.80
2023-04-07T20:33:54.053Z,7.97
2023-04-07T20:36:21.910Z,8.73
2023-04-07T20:38:49.940Z,9.23
2023-04-07T20:41:18.079Z,8.13
2023-04-07T20:43:47.279Z,8.85
2023-04-07T20:46:15.134Z,7.80
2023-04-07T20:48:43.171Z,8.80
2023-04-07T20:51:11.098Z,8.90
2023-04-07T20:53:38.847Z,9.27
2023-04-07T20:56:06.885Z,8.18
2023-04-07T20:58:34.730Z,9.60
2023-04-07T21:01:04.010Z,8.18
2023-04-07T21:03:31.914Z,9.45
2023-04-07T21:05:59.853Z,8.73
2023-04-07T21:08:27.840Z,9.10
2023-04-07T21:10:55.869Z,9.43
2023-04-07T21:13:25.945Z,8.60
2023-04-07T21:15:53.918Z,9.13
2023-04-07T21:18:23.083Z,9.23
2023-04-07T21:20:50.934Z,9.70
2023-04-07T21:23:19.516Z,9.38
2023-04-07T21:25:47.558Z,8.32
2023-04-07T21:28:15.700Z,9.20
2023-04-07T21:30:43.638Z,9.40
2023-04-07T21:33:12.391Z,8.25
2023-04-07T21:35:41.704Z,9.07
2023-04-07T21:38:09.494Z,9.63
2023-04-07T21:40:37.255Z,8.60
2023-04-07T21:43:05.028Z,9.15
2023-04-07T21:45:32.836Z,9.40
2023-04-07T21:48:00.590Z,9.55
2023-04-07T21:50:28.373Z,10.13
2023-04-07T21:52:57.486Z,8.90
2023-04-07T21:55:25.293Z,9.25
2023-04-07T21:57:53.120Z,10.95
2023-04-07T22:00:21.756Z,10.90
2023-04-07T22:02:49.890Z,10.23
2023-04-07T22:05:18.075Z,11.57
2023-04-07T22:07:46.814Z,11.27
2023-04-07T22:10:16.063Z,11.77
2023-04-07T22:12:43.846Z,13.30
2023-04-07T22:15:13.098Z,12.20
2023-04-07T22:17:41.391Z,12.98
2023-04-07T22:20:11.265Z,13.15
2023-04-07T22:22:39.605Z,14.13
2023-04-07T22:25:08.008Z,14.40
2023-04-07T22:27:37.113Z,15.30
2023-04-07T22:30:05.335Z,14.73
2023-04-07T22:32:33.108Z,13.60
2023-04-07T22:35:00.929Z,15.05
2023-04-07T22:37:28.770Z,14.88
2023-04-07T22:39:56.502Z,14.90
2023-04-07T22:42:24.242Z,15.57
2023-04-07T22:44:53.365Z,17.02
2023-04-07T22:47:22.344Z,15.65
2023-04-07T22:49:50.135Z,15.77
2023-04-07T22:52:17.828Z,16.52
2023-04-07T22:54:45.910Z,17.38
2023-04-07T22:57:13.649Z,16.88
2023-04-07T22:59:41.498Z,16.48
2023-04-07T23:02:10.757Z,16.52
2023-04-07T23:04:38.508Z,18.17
2023-04-07T23:07:06.334Z,18.95
2023-04-07T23:09:34.214Z,17.13
2023-04-07T23:12:02.475Z,16.23
2023-04-07T23:14:30.256Z,16.38
2023-04-07T23:16:58.061Z,16.55
2023-04-07T23:19:27.198Z,16.85
2023-04-07T23:21:54.978Z,16.63
2023-04-07T23:24:22.674Z,16.67
2023-04-07T23:26:50.427Z,15.48
2023-04-07T23:29:18.165Z,16.77
2023-04-07T23:31:45.912Z,16.95
2023-04-07T23:34:13.669Z,16.73
2023-04-07T23:36:42.808Z,16.58
2023-04-07T23:39:10.566Z,16.75
2023-04-07T23:41:38.323Z,16.73
2023-04-07T23:44:06.966Z,17.13
2023-04-07T23:46:34.852Z,15.77
2023-04-07T23:49:02.832Z,16.48
2023-04-07T23:51:30.651Z,16.08
2023-04-07T23:53:59.865Z,16.17
2023-04-07T23:56:28.929Z,17.02
2023-04-07T23:58:56.818Z,18.20
